sensor_id;sensor_type;location;lat;lon;timestamp;pressure;altitude;pressure_sealevel;temperature;humidity
70902;BME280;58548;47.210;8.618;2024-03-06T00:00:08;94044.94;;;11.96;37.88
70902;BME280;58548;47.210;8.618;2024-03-06T00:02:39;93995.34;;;11.60;37.60
70902;BME280;58548;47.210;8.618;2024-03-06T00:05:05;94058.00;;;11.96;37.90
70902;BME280;58548;47.210;8.618;2024-03-06T00:07:33;94095.13;;;12.19;38.15
70902;BME280;58548;47.210;8.618;2024-03-06T00:10:03;94006.63;;;11.61;38.20
70902;BME280;58548;47.210;8.618;2024-03-06T00:12:33;93995.13;;;11.55;37.73
70902;BME280;58548;47.210;8.618;2024-03-06T00:14:58;94031.59;;;11.77;37.71
70902;BME280;58548;47.210;8.618;2024-03-06T00:17:27;94104.22;;;12.24;37.83
70902;BME280;58548;47.210;8.618;2024-03-06T00:19:53;94017.09;;;11.68;37.32
70902;BME280;58548;47.210;8.618;2024-03-06T00:22:18;94112.25;;;12.22;37.56
70902;BME280;58548;47.210;8.618;2024-03-06T00:24:44;93998.16;;;11.52;37.88
70902;BME280;58548;47.210;8.618;2024-03-06T00:27:10;94102.97;;;12.13;37.88
70902;BME280;58548;47.210;8.618;2024-03-06T00:29:38;94020.69;;;11.53;37.84
70902;BME280;58548;47.210;8.618;2024-03-06T00:32:04;94079.34;;;11.92;37.78
70902;BME280;58548;47.210;8.618;2024-03-06T00:34:32;94108.63;;;12.16;37.82
70902;BME280;58548;47.210;8.618;2024-03-06T00:36:58;94115.88;;;12.14;38.09
70902;BME280;58548;47.210;8.618;2024-03-06T00:39:26;94087.63;;;11.96;37.86
70902;BME280;58548;47.210;8.618;2024-03-06T00:41:52;94120.31;;;12.14;37.46
70902;BME280;58548;47.210;8.618;2024-03-06T00:44:18;94116.47;;;12.16;37.03
70902;BME280;58548;47.210;8.618;2024-03-06T00:46:44;94115.88;;;12.14;37.58
70902;BME280;58548;47.210;8.618;2024-03-06T00:49:10;94024.28;;;11.52;37.42
70902;BME280;58548;47.210;8.618;2024-03-06T00:51:36;94021.88;;;11.51;37.66
70902;BME280;58548;47.210;8.618;2024-03-06T00:54:03;94123.53;;;12.16;37.85
70902;BME280;58548;47.210;8.618;2024-03-06T00:56:30;94043.66;;;11.65;37.12
70902;BME280;58548;47.210;8.618;2024-03-06T00:58:56;94121.28;;;12.06;37.53
70902;BME280;58548;47.210;8.618;2024-03-06T01:01:24;94057.53;;;11.58;37.66
70902;BME280;58548;47.210;8.618;2024-03-06T01:03:52;94117.84;;;11.99;37.68
70902;BME280;58548;47.210;8.618;2024-03-06T01:06:18;94136.41;;;12.11;37.91
70902;BME280;58548;47.210;8.618;2024-03-06T01:08:46;94123.91;;;12.06;37.40
70902;BME280;58548;47.210;8.618;2024-03-06T01:11:12;94079.91;;;11.74;37.73
70902;BME280;58548;47.210;8.618;2024-03-06T01:13:40;94050.84;;;11.56;37.51
70902;BME280;58548;47.210;8.618;2024-03-06T01:16:08;94040.38;;;11.49;37.32
70902;BME280;58548;47.210;8.618;2024-03-06T01:18:34;94134.56;;;12.11;38.00
70902;BME280;58548;47.210;8.618;2024-03-06T01:21:00;94122.69;;;12.02;37.49
70902;BME280;58548;47.210;8.618;2024-03-06T01:23:28;94031.13;;;11.53;37.76
70902;BME280;58548;47.210;8.618;2024-03-06T01:25:56;94141.25;;;12.20;37.81
70902;BME280;58548;47.210;8.618;2024-03-06T01:28:22;94062.59;;;11.73;37.52
70902;BME280;58548;47.210;8.618;2024-03-06T01:30:48;94142.47;;;12.18;37.19
70902;BME280;58548;47.210;8.618;2024-03-06T01:33:16;94066.78;;;11.68;37.72
70902;BME280;58548;47.210;8.618;2024-03-06T01:35:44;94112.97;;;11.96;37.65
70902;BME280;58548;47.210;8.618;2024-03-06T01:38:12;94151.72;;;12.20;37.46
70902;BME280;58548;47.210;8.618;2024-03-06T01:40:44;94043.66;;;11.65;37.14
70902;BME280;58548;47.210;8.618;2024-03-06T01:43:22;94069.63;;;11.73;37.53
70902;BME280;58548;47.210;8.618;2024-03-06T01:45:49;94144.03;;;12.12;37.55
70902;BME280;58548;47.210;8.618;2024-03-06T01:48:27;94135.19;;;12.06;37.56
70902;BME280;58548;47.210;8.618;2024-03-06T01:50:56;94028.69;;;11.45;37.35
70902;BME280;58548;47.210;8.618;2024-03-06T01:53:23;94112.22;;;12.02;37.84
70902;BME280;58548;47.210;8.618;2024-03-06T01:55:54;94002.34;;;11.40;37.81
70902;BME280;58548;47.210;8.618;2024-03-06T01:58:24;94113.22;;;12.07;37.91
70902;BME280;58548;47.210;8.618;2024-03-06T02:00:52;94027.50;;;11.41;37.73
70902;BME280;58548;47.210;8.618;2024-03-06T02:03:23;94113.44;;;12.06;37.34
70902;BME280;58548;47.210;8.618;2024-03-06T02:05:52;93998.50;;;11.29;37.62
70902;BME280;58548;47.210;8.618;2024-03-06T02:08:19;94039.59;;;11.49;37.96
70902;BME280;58548;47.210;8.618;2024-03-06T02:10:45;94017.56;;;11.23;37.62
70902;BME280;58548;47.210;8.618;2024-03-06T02:13:14;94111.53;;;11.86;38.26
70902;BME280;58548;47.210;8.618;2024-03-06T02:15:47;94044.78;;;11.42;38.01
70902;BME280;58548;47.210;8.618;2024-03-06T02:18:15;94125.44;;;11.94;37.63
70902;BME280;58548;47.210;8.618;2024-03-06T02:20:41;94117.34;;;11.82;38.24
70902;BME280;58548;47.210;8.618;2024-03-06T02:23:11;94120.97;;;11.87;38.29
70902;BME280;58548;47.210;8.618;2024-03-06T02:25:37;94106.47;;;11.71;37.83
70902;BME280;58548;47.210;8.618;2024-03-06T02:28:05;94013.31;;;11.22;38.15
70902;BME280;58548;47.210;8.618;2024-03-06T02:30:34;94070.22;;;11.61;37.81
70902;BME280;58548;47.210;8.618;2024-03-06T02:33:03;94114.13;;;11.86;38.03
70902;BME280;58548;47.210;8.618;2024-03-06T02:35:35;94125.22;;;11.88;37.74
70902;BME280;58548;47.210;8.618;2024-03-06T02:38:05;94093.56;;;11.70;38.33
70902;BME280;58548;47.210;8.618;2024-03-06T02:40:32;94033.88;;;11.31;37.71
70902;BME280;58548;47.210;8.618;2024-03-06T02:42:58;94127.84;;;11.88;37.55
70902;BME280;58548;47.210;8.618;2024-03-06T02:45:23;94105.25;;;11.74;37.68
70902;BME280;58548;47.210;8.618;2024-03-06T02:47:49;94109.09;;;11.78;38.28
70902;BME280;58548;47.210;8.618;2024-03-06T02:50:15;94124.81;;;11.91;38.24
70902;BME280;58548;47.210;8.618;2024-03-06T02:52:41;94122.78;;;11.80;38.16
70902;BME280;58548;47.210;8.618;2024-03-06T02:55:07;94125.78;;;11.77;38.18
70902;BME280;58548;47.210;8.618;2024-03-06T02:57:33;94120.56;;;11.77;38.16
70902;BME280;58548;47.210;8.618;2024-03-06T02:59:59;94028.59;;;11.18;38.62
70902;BME280;58548;47.210;8.618;2024-03-06T03:02:25;94119.72;;;11.70;38.16
70902;BME280;58548;47.210;8.618;2024-03-06T03:04:52;94120.94;;;11.67;38.30
70902;BME280;58548;47.210;8.618;2024-03-06T03:07:18;94093.28;;;11.51;38.46
70902;BME280;58548;47.210;8.618;2024-03-06T03:09:51;94114.09;;;11.66;38.36
70902;BME280;58548;47.210;8.618;2024-03-06T03:12:17;94120.09;;;11.67;37.86
70902;BME280;58548;47.210;8.618;2024-03-06T03:14:45;94022.84;;;10.94;38.62
70902;BME280;58548;47.210;8.618;2024-03-06T03:17:11;94073.69;;;11.27;38.20
70902;BME280;58548;47.210;8.618;2024-03-06T03:19:38;94105.13;;;11.47;38.33
70902;BME280;58548;47.210;8.618;2024-03-06T03:22:05;94137.84;;;11.65;38.61
70902;BME280;58548;47.210;8.618;2024-03-06T03:24:31;94131.38;;;11.60;38.03
70902;BME280;58548;47.210;8.618;2024-03-06T03:26:59;94113.59;;;11.49;38.18
70902;BME280;58548;47.210;8.618;2024-03-06T03:29:26;94045.63;;;11.00;38.50
70902;BME280;58548;47.210;8.618;2024-03-06T03:31:55;94142.44;;;11.63;38.67
70902;BME280;58548;47.210;8.618;2024-03-06T03:34:25;94143.44;;;11.61;38.65
70902;BME280;58548;47.210;8.618;2024-03-06T03:36:55;94134.97;;;11.59;37.99
70902;BME280;58548;47.210;8.618;2024-03-06T03:39:22;94142.25;;;11.64;38.55
70902;BME280;58548;47.210;8.618;2024-03-06T03:41:50;94043.03;;;11.07;37.88
70902;BME280;58548;47.210;8.618;2024-03-06T03:44:17;94059.59;;;11.21;38.17
70902;BME280;58548;47.210;8.618;2024-03-06T03:46:46;94078.09;;;11.26;38.11
70902;BME280;58548;47.210;8.618;2024-03-06T03:49:17;94041.81;;;11.10;37.80
70902;BME280;58548;47.210;8.618;2024-03-06T03:51:45;94141.50;;;11.77;38.50
70902;BME280;58548;47.210;8.618;2024-03-06T03:54:11;94153.19;;;11.81;37.90
70902;BME280;58548;47.210;8.618;2024-03-06T03:56:37;94153.59;;;11.85;37.71
70902;BME280;58548;47.210;8.618;2024-03-06T03:59:05;94160.66;;;11.84;37.99
70902;BME280;58548;47.210;8.618;2024-03-06T04:01:31;94113.63;;;11.56;38.08
70902;BME280;58548;47.210;8.618;2024-03-06T04:03:57;94058.75;;;11.14;37.88
70902;BME280;58548;47.210;8.618;2024-03-06T04:06:25;94047.47;;;11.13;37.81
70902;BME280;58548;47.210;8.618;2024-03-06T04:08:53;94024.53;;;11.09;37.59
70902;BME280;58548;47.210;8.618;2024-03-06T04:11:21;94158.84;;;11.91;38.18
70902;BME280;58548;47.210;8.618;2024-03-06T04:13:48;94057.38;;;11.25;38.17
70902;BME280;58548;47.210;8.618;2024-03-06T04:16:17;94126.19;;;11.74;37.76
70902;BME280;58548;47.210;8.618;2024-03-06T04:18:46;94150.78;;;11.86;37.57
70902;BME280;58548;47.210;8.618;2024-03-06T04:21:14;94070.94;;;11.42;38.15
70902;BME280;58548;47.210;8.618;2024-03-06T04:23:41;94135.25;;;11.78;38.09
70902;BME280;58548;47.210;8.618;2024-03-06T04:26:09;94159.25;;;11.88;37.85
70902;BME280;58548;47.210;8.618;2024-03-06T04:28:35;94082.16;;;11.36;37.88
70902;BME280;58548;47.210;8.618;2024-03-06T04:31:01;94088.25;;;11.43;38.13
70902;BME280;58548;47.210;8.618;2024-03-06T04:33:27;94082.94;;;11.29;37.84
70902;BME280;58548;47.210;8.618;2024-03-06T04:35:52;94161.03;;;11.81;37.90
70902;BME280;58548;47.210;8.618;2024-03-06T04:38:18;94053.50;;;11.14;38.37
70902;BME280;58548;47.210;8.618;2024-03-06T04:40:44;93977.69;;;10.65;38.15
70902;BME280;58548;47.210;8.618;2024-03-06T04:43:11;94156.38;;;11.76;37.92
70902;BME280;58548;47.210;8.618;2024-03-06T04:45:36;94152.72;;;11.71;38.44
70902;BME280;58548;47.210;8.618;2024-03-06T04:48:08;94072.06;;;11.26;37.98
70902;BME280;58548;47.210;8.618;2024-03-06T04:50:34;94151.34;;;11.75;38.22
70902;BME280;58548;47.210;8.618;2024-03-06T04:53:00;94178.97;;;11.84;38.00
70902;BME280;58548;47.210;8.618;2024-03-06T04:55:30;94159.97;;;11.69;38.22
70902;BME280;58548;47.210;8.618;2024-03-06T04:57:58;94160.81;;;11.76;37.94
70902;BME280;58548;47.210;8.618;2024-03-06T05:00:24;94115.19;;;11.43;38.31
70902;BME280;58548;47.210;8.618;2024-03-06T05:02:50;94069.50;;;10.97;38.36
70902;BME280;58548;47.210;8.618;2024-03-06T05:05:18;94199.44;;;11.74;38.64
70902;BME280;58548;47.210;8.618;2024-03-06T05:07:46;94113.69;;;11.27;38.25
70902;BME280;58548;47.210;8.618;2024-03-06T05:10:15;94116.75;;;11.31;37.97
70902;BME280;58548;47.210;8.618;2024-03-06T05:12:44;94189.44;;;11.84;38.14
70902;BME280;58548;47.210;8.618;2024-03-06T05:15:10;94114.28;;;11.23;38.10
70902;BME280;58548;47.210;8.618;2024-03-06T05:17:37;94193.06;;;11.83;37.72
70902;BME280;58548;47.210;8.618;2024-03-06T05:20:06;94195.44;;;11.78;37.92
70902;BME280;58548;47.210;8.618;2024-03-06T05:22:34;94185.72;;;11.65;38.58
70902;BME280;58548;47.210;8.618;2024-03-06T05:25:03;94203.69;;;11.82;38.18
70902;BME280;58548;47.210;8.618;2024-03-06T05:27:31;94209.50;;;11.77;38.23
70902;BME280;58548;47.210;8.618;2024-03-06T05:29:57;94119.66;;;11.14;38.14
70902;BME280;58548;47.210;8.618;2024-03-06T05:32:23;94211.75;;;11.80;38.29
70902;BME280;58548;47.210;8.618;2024-03-06T05:34:51;94216.41;;;11.85;37.77
70902;BME280;58548;47.210;8.618;2024-03-06T05:37:19;94217.59;;;11.82;38.26
70902;BME280;58548;47.210;8.618;2024-03-06T05:39:50;94140.66;;;11.28;38.38
70902;BME280;58548;47.210;8.618;2024-03-06T05:42:21;94199.03;;;11.70;38.00
70902;BME280;58548;47.210;8.618;2024-03-06T05:44:50;94225.28;;;11.90;38.46
70902;BME280;58548;47.210;8.618;2024-03-06T05:47:22;94229.50;;;11.91;38.34
70902;BME280;58548;47.210;8.618;2024-03-06T05:49:48;94226.09;;;11.91;37.64
70902;BME280;58548;47.210;8.618;2024-03-06T05:52:14;94133.59;;;11.28;37.90
70902;BME280;58548;47.210;8.618;2024-03-06T05:54:40;94135.97;;;11.23;38.39
70902;BME280;58548;47.210;8.618;2024-03-06T05:57:06;94239.16;;;11.84;37.80
70902;BME280;58548;47.210;8.618;2024-03-06T05:59:32;94135.41;;;11.21;38.07
70902;BME280;58548;47.210;8.618;2024-03-06T06:02:00;94149.66;;;11.25;37.92
70902;BME280;58548;47.210;8.618;2024-03-06T06:04:32;94141.63;;;11.20;38.35
70902;BME280;58548;47.210;8.618;2024-03-06T06:06:57;94146.06;;;11.26;37.68
70902;BME280;58548;47.210;8.618;2024-03-06T06:09:25;94228.03;;;11.75;37.55
70902;BME280;58548;47.210;8.618;2024-03-06T06:11:56;94246.22;;;11.90;37.96
70902;BME280;58548;47.210;8.618;2024-03-06T06:14:22;94137.47;;;11.32;37.81
70902;BME280;58548;47.210;8.618;2024-03-06T06:16:48;94149.75;;;11.39;37.90
70902;BME280;58548;47.210;8.618;2024-03-06T06:19:16;94214.97;;;11.82;37.72
70902;BME280;58548;47.210;8.618;2024-03-06T06:21:44;94251.47;;;11.97;37.70
70902;BME280;58548;47.210;8.618;2024-03-06T06:24:10;94264.84;;;12.09;37.84
70902;BME280;58548;47.210;8.618;2024-03-06T06:26:38;94219.78;;;11.79;37.71
70902;BME280;58548;47.210;8.618;2024-03-06T06:29:04;94264.81;;;12.02;37.78
70902;BME280;58548;47.210;8.618;2024-03-06T06:31:33;94185.81;;;11.50;37.95
70902;BME280;58548;47.210;8.618;2024-03-06T06:34:00;94248.22;;;11.88;38.11
70902;BME280;58548;47.210;8.618;2024-03-06T06:36:28;94172.31;;;11.40;37.95
70902;BME280;58548;47.210;8.618;2024-03-06T06:38:55;94272.50;;;12.04;37.82
70902;BME280;58548;47.210;8.618;2024-03-06T06:41:21;94186.16;;;11.40;38.01
70902;BME280;58548;47.210;8.618;2024-03-06T06:43:49;94275.72;;;12.06;37.82
70902;BME280;58548;47.210;8.618;2024-03-06T06:46:19;94288.63;;;12.07;37.55
70902;BME280;58548;47.210;8.618;2024-03-06T06:48:47;94290.38;;;12.00;38.13
70902;BME280;58548;47.210;8.618;2024-03-06T06:51:14;94286.59;;;12.03;38.04
70902;BME280;58548;47.210;8.618;2024-03-06T06:53:40;94283.34;;;12.01;38.01
70902;BME280;58548;47.210;8.618;2024-03-06T06:56:09;94184.41;;;11.48;37.86
70902;BME280;58548;47.210;8.618;2024-03-06T06:58:35;94195.28;;;11.51;37.46
70902;BME280;58548;47.210;8.618;2024-03-06T07:01:01;94280.16;;;12.12;37.96
70902;BME280;58548;47.210;8.618;2024-03-06T07:03:27;94286.25;;;12.19;37.66
70902;BME280;58548;47.210;8.618;2024-03-06T07:05:56;94269.34;;;12.22;37.59
70902;BME280;58548;47.210;8.618;2024-03-06T07:08:24;94295.13;;;12.25;37.57
70902;BME280;58548;47.210;8.618;2024-03-06T07:10:50;94295.97;;;12.26;37.50
70902;BME280;58548;47.210;8.618;2024-03-06T07:13:20;94199.75;;;11.57;37.63
70902;BME280;58548;47.210;8.618;2024-03-06T07:15:46;94294.34;;;12.25;37.88
70902;BME280;58548;47.210;8.618;2024-03-06T07:18:15;94278.56;;;12.11;37.62
70902;BME280;58548;47.210;8.618;2024-03-06T07:20:46;94307.25;;;12.33;37.64
70902;BME280;58548;47.210;8.618;2024-03-06T07:23:14;94190.94;;;11.65;37.44
70902;BME280;58548;47.210;8.618;2024-03-06T07:25:40;94126.34;;;11.24;37.52
70902;BME280;58548;47.210;8.618;2024-03-06T07:28:06;94281.06;;;12.33;37.11
70902;BME280;58548;47.210;8.618;2024-03-06T07:30:34;94245.94;;;12.07;36.83
70902;BME280;58548;47.210;8.618;2024-03-06T07:33:03;94305.28;;;12.42;37.03
70902;BME280;58548;47.210;8.618;2024-03-06T07:35:29;94290.72;;;12.26;37.23
70902;BME280;58548;47.210;8.618;2024-03-06T07:37:59;94129.63;;;11.32;37.06
70902;BME280;58548;47.210;8.618;2024-03-06T07:40:28;94306.53;;;12.52;36.80
70902;BME280;58548;47.210;8.618;2024-03-06T07:42:54;94295.63;;;12.42;37.32
70902;BME280;58548;47.210;8.618;2024-03-06T07:45:20;94219.47;;;11.95;37.35
70902;BME280;58548;47.210;8.618;2024-03-06T07:47:46;94254.22;;;12.17;36.54
70902;BME280;58548;47.210;8.618;2024-03-06T07:50:14;94319.25;;;12.62;36.84
70902;BME280;58548;47.210;8.618;2024-03-06T07:52:47;94294.44;;;12.51;36.83
70902;BME280;58548;47.210;8.618;2024-03-06T07:55:13;94319.31;;;12.69;36.56
70902;BME280;58548;47.210;8.618;2024-03-06T07:57:39;94275.84;;;12.40;36.63
70902;BME280;58548;47.210;8.618;2024-03-06T08:00:10;94244.34;;;12.13;36.80
70902;BME280;58548;47.210;8.618;2024-03-06T08:02:48;94326.72;;;12.65;36.74
70902;BME280;58548;47.210;8.618;2024-03-06T08:05:16;94333.19;;;12.70;36.67
70902;BME280;58548;47.210;8.618;2024-03-06T08:07:42;94231.78;;;12.01;36.64
70902;BME280;58548;47.210;8.618;2024-03-06T08:10:09;94284.50;;;12.27;36.47
70902;BME280;58548;47.210;8.618;2024-03-06T08:12:37;94331.94;;;12.59;36.78
70902;BME280;58548;47.210;8.618;2024-03-06T08:15:03;94347.94;;;12.77;36.76
70902;BME280;58548;47.210;8.618;2024-03-06T08:17:31;94346.13;;;12.78;36.30
70902;BME280;58548;47.210;8.618;2024-03-06T08:19:57;94249.38;;;12.14;36.63
70902;BME280;58548;47.210;8.618;2024-03-06T08:22:23;94240.28;;;12.10;36.53
70902;BME280;58548;47.210;8.618;2024-03-06T08:24:51;94291.63;;;12.46;36.41
70902;BME280;58548;47.210;8.618;2024-03-06T08:27:17;94249.44;;;12.28;36.50
70902;BME280;58548;47.210;8.618;2024-03-06T08:29:42;94350.63;;;12.91;36.48
70902;BME280;58548;47.210;8.618;2024-03-06T08:32:11;94308.19;;;12.60;36.48
70902;BME280;58548;47.210;8.618;2024-03-06T08:34:39;94248.84;;;12.26;36.33
70902;BME280;58548;47.210;8.618;2024-03-06T08:37:05;94257.31;;;12.28;36.42
70902;BME280;58548;47.210;8.618;2024-03-06T08:39:36;94324.13;;;12.72;36.29
70902;BME280;58548;47.210;8.618;2024-03-06T08:42:04;94268.59;;;12.35;36.42
70902;BME280;58548;47.210;8.618;2024-03-06T08:44:33;94257.31;;;12.28;36.38
70902;BME280;58548;47.210;8.618;2024-03-06T08:47:01;94364.75;;;13.03;36.08
70902;BME280;58548;47.210;8.618;2024-03-06T08:49:29;94349.00;;;12.90;36.09
70902;BME280;58548;47.210;8.618;2024-03-06T08:51:57;94286.00;;;12.49;35.67
70902;BME280;58548;47.210;8.618;2024-03-06T08:54:23;94371.00;;;12.95;36.07
70902;BME280;58548;47.210;8.618;2024-03-06T08:56:49;94306.16;;;12.62;35.59
70902;BME280;58548;47.210;8.618;2024-03-06T08:59:15;94392.00;;;13.16;36.08
70902;BME280;58548;47.210;8.618;2024-03-06T09:01:45;94327.59;;;12.79;35.70
70902;BME280;58548;47.210;8.618;2024-03-06T09:04:12;94391.81;;;13.17;36.11
70902;BME280;58548;47.210;8.618;2024-03-06T09:06:38;94385.38;;;13.20;35.95
70902;BME280;58548;47.210;8.618;2024-03-06T09:09:04;94303.75;;;12.67;35.92
70902;BME280;58548;47.210;8.618;2024-03-06T09:11:34;94391.84;;;13.24;35.61
70902;BME280;58548;47.210;8.618;2024-03-06T09:14:03;94384.13;;;13.16;35.83
70902;BME280;58548;47.210;8.618;2024-03-06T09:16:29;94269.47;;;12.56;36.02
70902;BME280;58548;47.210;8.618;2024-03-06T09:18:58;94337.75;;;13.03;35.53
70902;BME280;58548;47.210;8.618;2024-03-06T09:21:23;94304.84;;;12.87;35.72
70902;BME280;58548;47.210;8.618;2024-03-06T09:23:49;94392.72;;;13.51;35.46
70902;BME280;58548;47.210;8.618;2024-03-06T09:26:17;94326.88;;;13.12;35.51
70902;BME280;58548;47.210;8.618;2024-03-06T09:28:43;94306.88;;;13.05;35.24
70902;BME280;58548;47.210;8.618;2024-03-06T09:31:11;94385.69;;;13.65;34.98
70902;BME280;58548;47.210;8.618;2024-03-06T09:33:39;94293.78;;;13.11;35.21
70902;BME280;58548;47.210;8.618;2024-03-06T09:36:10;94400.00;;;13.83;34.99
70902;BME280;58548;47.210;8.618;2024-03-06T09:38:43;94410.13;;;13.86;34.72
70902;BME280;58548;47.210;8.618;2024-03-06T09:41:09;94298.22;;;13.18;34.91
70902;BME280;58548;47.210;8.618;2024-03-06T09:43:35;94405.47;;;13.88;34.83
70902;BME280;58548;47.210;8.618;2024-03-06T09:46:02;94411.34;;;13.90;34.91
70902;BME280;58548;47.210;8.618;2024-03-06T09:48:31;94403.84;;;13.94;34.45
70902;BME280;58548;47.210;8.618;2024-03-06T09:51:01;94379.41;;;13.73;34.46
70902;BME280;58548;47.210;8.618;2024-03-06T09:53:28;94319.22;;;13.38;34.79
70902;BME280;58548;47.210;8.618;2024-03-06T09:55:57;94378.00;;;13.70;34.36
70902;BME280;58548;47.210;8.618;2024-03-06T09:58:23;94383.66;;;13.81;34.61
70902;BME280;58548;47.210;8.618;2024-03-06T10:00:54;94308.75;;;13.45;34.70
70902;BME280;58548;47.210;8.618;2024-03-06T10:03:23;94293.44;;;13.41;34.24
70902;BME280;58548;47.210;8.618;2024-03-06T10:05:49;94401.03;;;14.09;34.52
70902;BME280;58548;47.210;8.618;2024-03-06T10:08:17;94326.50;;;13.56;34.61
70902;BME280;58548;47.210;8.618;2024-03-06T10:10:50;94327.72;;;13.67;34.63
70902;BME280;58548;47.210;8.618;2024-03-06T10:13:17;94386.47;;;14.13;34.19
70902;BME280;58548;47.210;8.618;2024-03-06T10:16:03;94423.41;;;14.38;33.97
70902;BME280;58548;47.210;8.618;2024-03-06T10:18:34;94419.97;;;14.44;33.96
70902;BME280;58548;47.210;8.618;2024-03-06T10:21:04;94436.31;;;14.53;33.77
70902;BME280;58548;47.210;8.618;2024-03-06T10:23:32;94421.97;;;14.49;33.88
70902;BME280;58548;47.210;8.618;2024-03-06T10:25:58;94429.66;;;14.57;33.78
70902;BME280;58548;47.210;8.618;2024-03-06T10:28:24;94437.53;;;14.64;33.58
70902;BME280;58548;47.210;8.618;2024-03-06T10:30:51;94428.22;;;14.61;33.67
70902;BME280;58548;47.210;8.618;2024-03-06T10:33:21;94436.28;;;14.67;33.22
70902;BME280;58548;47.210;8.618;2024-03-06T10:35:49;94427.63;;;14.73;33.36
70902;BME280;58548;47.210;8.618;2024-03-06T10:38:15;94341.63;;;14.14;33.33
70902;BME280;58548;47.210;8.618;2024-03-06T10:40:46;94441.56;;;14.80;33.38
70902;BME280;58548;47.210;8.618;2024-03-06T10:43:14;94363.59;;;14.40;33.43
70902;BME280;58548;47.210;8.618;2024-03-06T10:45:50;94435.88;;;14.83;33.29
70902;BME280;58548;47.210;8.618;2024-03-06T10:48:18;94431.03;;;14.80;33.22
70902;BME280;58548;47.210;8.618;2024-03-06T10:50:49;94261.13;;;13.75;33.32
70902;BME280;58548;47.210;8.618;2024-03-06T10:53:16;94420.94;;;14.77;33.04
70902;BME280;58548;47.210;8.618;2024-03-06T10:55:44;94433.84;;;14.85;33.07
70902;BME280;58548;47.210;8.618;2024-03-06T10:58:11;94445.56;;;14.89;33.10
70902;BME280;58548;47.210;8.618;2024-03-06T11:00:44;94351.88;;;14.36;33.02
70902;BME280;58548;47.210;8.618;2024-03-06T11:03:11;94425.19;;;14.78;33.02
70902;BME280;58548;47.210;8.618;2024-03-06T11:05:39;94344.22;;;14.35;32.86
70902;BME280;58548;47.210;8.618;2024-03-06T11:08:13;94422.91;;;14.88;33.10
70902;BME280;58548;47.210;8.618;2024-03-06T11:10:43;94438.66;;;15.02;32.61
70902;BME280;58548;47.210;8.618;2024-03-06T11:15:49;94438.47;;;14.97;32.58
70902;BME280;58548;47.210;8.618;2024-03-06T11:23:32;94446.72;;;15.07;32.69
70902;BME280;58548;47.210;8.618;2024-03-06T11:26:02;94442.06;;;15.09;32.94
70902;BME280;58548;47.210;8.618;2024-03-06T11:28:31;94428.53;;;14.99;32.42
70902;BME280;58548;47.210;8.618;2024-03-06T11:30:58;94437.66;;;15.03;32.26
70902;BME280;58548;47.210;8.618;2024-03-06T11:33:45;94441.28;;;15.02;32.71
70902;BME280;58548;47.210;8.618;2024-03-06T11:38:46;94350.00;;;14.50;32.46
70902;BME280;58548;47.210;8.618;2024-03-06T11:41:12;94441.88;;;15.04;32.59
70902;BME280;58548;47.210;8.618;2024-03-06T11:43:44;94345.41;;;14.39;32.41
70902;BME280;58548;47.210;8.618;2024-03-06T11:46:11;94448.34;;;15.01;32.63
70902;BME280;58548;47.210;8.618;2024-03-06T11:48:37;94436.25;;;14.93;32.92
70902;BME280;58548;47.210;8.618;2024-03-06T11:51:03;94445.53;;;14.96;32.61
70902;BME280;58548;47.210;8.618;2024-03-06T11:53:34;94443.13;;;14.95;32.33
70902;BME280;58548;47.210;8.618;2024-03-06T11:56:05;94333.94;;;14.13;32.67
70902;BME280;58548;47.210;8.618;2024-03-06T11:58:37;94351.13;;;14.09;32.67
70902;BME280;58548;47.210;8.618;2024-03-06T12:01:03;94339.03;;;13.94;32.99
70902;BME280;58548;47.210;8.618;2024-03-06T12:03:32;94330.94;;;13.96;32.97
70902;BME280;58548;47.210;8.618;2024-03-06T12:05:58;94345.66;;;14.03;33.15
70902;BME280;58548;47.210;8.618;2024-03-06T12:08:27;94436.69;;;14.63;33.11
70902;BME280;58548;47.210;8.618;2024-03-06T12:10:52;94334.78;;;13.93;33.38
70902;BME280;58548;47.210;8.618;2024-03-06T12:13:21;94418.53;;;14.42;33.21
70902;BME280;58548;47.210;8.618;2024-03-06T12:15:47;94435.69;;;14.58;33.23
70902;BME280;58548;47.210;8.618;2024-03-06T12:18:13;94429.03;;;14.55;33.29
70902;BME280;58548;47.210;8.618;2024-03-06T12:20:42;94350.72;;;14.12;33.05
70902;BME280;58548;47.210;8.618;2024-03-06T12:23:21;94339.41;;;14.05;33.23
70902;BME280;58548;47.210;8.618;2024-03-06T12:25:49;94334.97;;;13.98;33.33
70902;BME280;58548;47.210;8.618;2024-03-06T12:28:14;94428.22;;;14.61;33.58
70902;BME280;58548;47.210;8.618;2024-03-06T12:30:46;94309.34;;;13.87;33.32
70902;BME280;58548;47.210;8.618;2024-03-06T12:33:16;94405.19;;;14.57;33.44
70902;BME280;58548;47.210;8.618;2024-03-06T12:35:42;94419.34;;;14.69;32.98
70902;BME280;58548;47.210;8.618;2024-03-06T12:38:17;94336.34;;;14.21;33.25
70902;BME280;58548;47.210;8.618;2024-03-06T12:40:45;94331.53;;;14.18;33.49
70902;BME280;58548;47.210;8.618;2024-03-06T12:43:11;94342.97;;;14.37;33.26
70902;BME280;58548;47.210;8.618;2024-03-06T12:45:37;94347.78;;;14.47;33.21
70902;BME280;58548;47.210;8.618;2024-03-06T12:48:07;94367.16;;;14.73;32.95
70902;BME280;58548;47.210;8.618;2024-03-06T12:50:35;94324.41;;;14.39;32.95
70902;BME280;58548;47.210;8.618;2024-03-06T12:53:01;94316.69;;;14.37;32.99
70902;BME280;58548;47.210;8.618;2024-03-06T12:55:31;94429.31;;;15.06;32.78
70902;BME280;58548;47.210;8.618;2024-03-06T12:58:00;94343.09;;;14.62;32.80
70902;BME280;58548;47.210;8.618;2024-03-06T13:00:25;94401.03;;;14.95;32.80
70902;BME280;58548;47.210;8.618;2024-03-06T13:02:51;94309.03;;;14.36;32.82
70902;BME280;58548;47.210;8.618;2024-03-06T13:05:19;94312.44;;;14.43;32.58
70902;BME280;58548;47.210;8.618;2024-03-06T13:07:45;94342.50;;;14.60;32.54
70902;BME280;58548;47.210;8.618;2024-03-06T13:10:11;94417.78;;;15.07;32.87
70902;BME280;58548;47.210;8.618;2024-03-06T13:12:38;94393.38;;;14.93;32.78